createdAt,value
2017-10-03T00:02:09.967Z,89.96
2017-10-03T00:04:41.530Z,90.67
2017-10-03T00:07:12.224Z,91.03
2017-10-03T00:09:54.151Z,91.00
2017-10-03T00:12:28.039Z,90.22
2017-10-03T00:15:02.895Z,90.51
2017-10-03T00:17:34.073Z,90.48
2017-10-03T00:20:08.769Z,90.54
2017-10-03T00:22:41.225Z,92.10
2017-10-03T00:25:13.226Z,91.42
2017-10-03T00:27:45.665Z,92.14
2017-10-03T00:30:17.857Z,91.82
2017-10-03T00:32:51.342Z,91.78
2017-10-03T00:35:22.581Z,92.02
2017-10-03T00:37:53.577Z,92.38
2017-10-03T00:40:24.828Z,91.86
2017-10-03T00:42:55.892Z,92.38
2017-10-03T00:45:27.008Z,92.80
2017-10-03T00:50:30.389Z,91.93
2017-10-03T00:53:03.759Z,91.69
2017-10-03T00:55:34.918Z,91.47
2017-10-03T00:58:06.363Z,91.83
2017-10-03T01:00:37.503Z,91.11
2017-10-03T01:03:08.537Z,91.06
2017-10-03T01:05:39.977Z,91.20
2017-10-03T01:08:11.101Z,90.88
2017-10-03T01:10:42.801Z,90.99
2017-10-03T01:13:14.479Z,90.96
2017-10-03T01:15:48.246Z,91.52
2017-10-03T01:18:20.942Z,91.07
2017-10-03T01:20:55.365Z,91.33
2017-10-03T01:23:27.032Z,91.26
2017-10-03T01:25:58.748Z,91.76
2017-10-03T01:28:29.901Z,91.76
2017-10-03T01:31:01.629Z,92.22
2017-10-03T01:33:32.496Z,92.24
2017-10-03T01:36:03.773Z,92.32
2017-10-03T01:38:35.882Z,92.92
2017-10-03T01:41:07.142Z,93.70
2017-10-03T01:43:39.134Z,93.46
2017-10-03T01:46:10.300Z,93.11
2017-10-03T01:48:41.545Z,93.38
2017-10-03T01:51:13.215Z,93.44
2017-10-03T01:53:46.005Z,93.04
2017-10-03T01:56:18.323Z,93.17
2017-10-03T01:58:52.064Z,94.11
2017-10-03T02:01:23.550Z,94.81
2017-10-03T02:03:54.903Z,94.47
2017-10-03T02:06:26.379Z,94.21
2017-10-03T02:08:57.599Z,93.97
2017-10-03T02:11:29.145Z,94.18
2017-10-03T02:14:00.235Z,94.80
2017-10-03T02:16:31.433Z,95.34
2017-10-03T02:19:02.992Z,95.16
2017-10-03T02:21:33.617Z,95.03
2017-10-03T02:24:04.933Z,95.20
2017-10-03T02:26:36.545Z,95.22
2017-10-03T02:29:08.028Z,95.03
2017-10-03T02:31:40.358Z,95.79
2017-10-03T02:34:11.389Z,95.89
2017-10-03T02:36:42.308Z,95.35
2017-10-03T02:39:13.740Z,94.89
2017-10-03T02:41:44.557Z,95.16
2017-10-03T02:44:18.846Z,95.56
2017-10-03T02:46:51.820Z,95.14
2017-10-03T02:49:23.029Z,95.53
2017-10-03T02:51:55.992Z,95.59
2017-10-03T02:54:27.149Z,95.75
2017-10-03T02:56:58.202Z,95.68
2017-10-03T02:59:29.833Z,95.39
2017-10-03T03:02:00.799Z,95.25
2017-10-03T03:04:35.722Z,95.31
2017-10-03T03:07:07.365Z,94.82
2017-10-03T03:09:38.248Z,94.84
2017-10-03T03:12:09.209Z,95.10
2017-10-03T03:14:40.624Z,95.02
2017-10-03T03:17:12.047Z,95.14
2017-10-03T03:19:43.362Z,94.83
2017-10-03T03:22:14.812Z,94.88
2017-10-03T03:24:45.664Z,94.82
2017-10-03T03:27:16.924Z,94.79
2017-10-03T03:29:58.450Z,94.57
2017-10-03T03:32:29.659Z,95.01
2017-10-03T03:35:01.354Z,94.92
2017-10-03T03:37:32.497Z,94.91
2017-10-03T03:40:03.747Z,94.91
2017-10-03T03:42:35.210Z,94.96
2017-10-03T03:45:05.810Z,94.89
2017-10-03T03:47:37.478Z,95.04
2017-10-03T03:50:14.106Z,95.63
2017-10-03T03:52:46.395Z,95.23
2017-10-03T03:55:26.818Z,95.06
2017-10-03T03:57:58.607Z,95.14
2017-10-03T04:00:29.710Z,95.37
2017-10-03T04:03:00.852Z,95.29
2017-10-03T04:05:31.660Z,95.47
2017-10-03T04:08:06.714Z,95.33
2017-10-03T04:10:40.519Z,95.46
2017-10-03T04:13:11.777Z,95.40
2017-10-03T04:15:43.185Z,95.57
2017-10-03T04:18:14.714Z,95.38
2017-10-03T04:20:45.924Z,95.73
2017-10-03T04:23:17.033Z,95.63
2017-10-03T04:25:47.941Z,95.53
2017-10-03T04:28:19.645Z,96.05
2017-10-03T04:30:50.736Z,95.96
2017-10-03T04:33:21.672Z,95.97
2017-10-03T04:35:57.563Z,96.26
2017-10-03T04:38:28.652Z,96.31
2017-10-03T04:41:01.059Z,96.73
2017-10-03T04:43:31.934Z,96.76
2017-10-03T04:46:03.072Z,96.56
2017-10-03T04:48:34.572Z,96.75
2017-10-03T04:51:06.286Z,96.79
2017-10-03T04:53:37.477Z,96.55
2017-10-03T04:56:09.028Z,96.24
2017-10-03T04:58:40.090Z,96.27
2017-10-03T05:01:11.245Z,96.60
2017-10-03T05:03:42.776Z,97.28
2017-10-03T05:06:14.233Z,96.85
2017-10-03T05:08:45.331Z,97.71
2017-10-03T05:11:16.795Z,97.29
2017-10-03T05:13:48.293Z,97.17
2017-10-03T05:16:21.814Z,96.76
2017-10-03T05:18:53.181Z,96.57
2017-10-03T05:21:25.021Z,96.36
2017-10-03T05:23:58.260Z,96.49
2017-10-03T05:26:29.167Z,96.70
2017-10-03T05:29:02.206Z,97.08
2017-10-03T05:31:33.446Z,96.58
2017-10-03T05:34:05.766Z,96.20
2017-10-03T05:36:36.887Z,97.39
2017-10-03T05:39:08.742Z,96.78
2017-10-03T05:41:40.034Z,96.60
2017-10-03T05:44:20.034Z,96.28
2017-10-03T05:46:52.213Z,96.91
2017-10-03T05:49:23.923Z,96.83
2017-10-03T05:51:55.081Z,96.81
2017-10-03T05:54:27.553Z,96.71
2017-10-03T05:57:00.254Z,96.54
2017-10-03T05:59:31.298Z,96.70
2017-10-03T06:02:03.988Z,96.04
2017-10-03T06:04:35.580Z,96.48
2017-10-03T06:07:07.129Z,96.34
2017-10-03T06:09:39.652Z,96.13
2017-10-03T06:12:11.053Z,96.03
2017-10-03T06:14:42.248Z,96.71
2017-10-03T06:17:13.687Z,96.57
2017-10-03T06:19:44.945Z,96.67
2017-10-03T06:22:16.257Z,96.47
2017-10-03T06:24:49.999Z,97.03
2017-10-03T06:27:21.523Z,96.56
2017-10-03T06:29:53.983Z,96.25
2017-10-03T06:32:26.973Z,96.58
2017-10-03T06:35:00.441Z,97.00
2017-10-03T06:37:32.038Z,96.21
2017-10-03T06:40:07.451Z,96.20
2017-10-03T06:42:39.041Z,95.90
2017-10-03T06:45:10.286Z,95.58
2017-10-03T06:47:42.107Z,96.08
2017-10-03T06:50:15.699Z,95.85
2017-10-03T06:52:49.615Z,96.18
2017-10-03T06:55:20.319Z,96.37
2017-10-03T06:57:51.761Z,95.87
2017-10-03T07:00:23.358Z,95.55
2017-10-03T07:02:54.511Z,95.84
2017-10-03T07:05:25.194Z,95.50
2017-10-03T07:07:56.582Z,95.84
2017-10-03T07:10:27.267Z,95.57
2017-10-03T07:13:02.203Z,96.13
2017-10-03T07:15:34.410Z,96.39
2017-10-03T07:18:08.501Z,96.08
2017-10-03T07:20:41.942Z,95.76
2017-10-03T07:23:23.150Z,95.96
2017-10-03T07:25:57.309Z,95.83
2017-10-03T07:28:28.704Z,95.84
2017-10-03T07:31:04.049Z,96.16
2017-10-03T07:33:35.240Z,96.80
2017-10-03T07:36:08.822Z,96.48
2017-10-03T07:38:40.498Z,97.10
2017-10-03T07:41:15.131Z,97.12
2017-10-03T07:43:50.112Z,97.39
2017-10-03T07:46:23.566Z,97.01
2017-10-03T07:48:55.937Z,96.50
2017-10-03T07:51:26.856Z,96.82
2017-10-03T07:53:57.782Z,97.45
2017-10-03T07:56:29.122Z,96.94
2017-10-03T07:59:00.457Z,96.82
2017-10-03T08:01:32.190Z,96.89
2017-10-03T08:04:05.927Z,96.89
2017-10-03T08:06:36.936Z,97.12
2017-10-03T08:09:09.814Z,97.45
2017-10-03T08:11:42.472Z,96.76
2017-10-03T08:14:14.103Z,97.01
2017-10-03T08:16:47.843Z,96.72
2017-10-03T08:19:20.855Z,96.81
2017-10-03T08:21:53.330Z,96.52
2017-10-03T08:24:24.821Z,96.49
2017-10-03T08:26:56.360Z,95.39
2017-10-03T08:29:40.209Z,95.10
2017-10-03T08:32:13.438Z,95.51
2017-10-03T08:34:44.363Z,95.65
2017-10-03T08:37:20.951Z,95.01
2017-10-03T08:39:52.955Z,95.12
2017-10-03T08:42:24.523Z,93.10
2017-10-03T08:44:57.205Z,93.92
2017-10-03T08:47:43.024Z,94.52
2017-10-03T08:50:16.522Z,92.61
2017-10-03T08:52:48.419Z,92.91
2017-10-03T08:55:25.758Z,93.37
2017-10-03T08:57:57.232Z,91.89
2017-10-03T09:00:28.080Z,91.85
2017-10-03T09:02:59.429Z,91.87
2017-10-03T09:05:30.438Z,91.10
2017-10-03T09:08:04.493Z,90.66
2017-10-03T09:10:35.918Z,90.94
2017-10-03T09:13:07.828Z,89.05
2017-10-03T09:15:40.941Z,91.91
2017-10-03T09:18:14.908Z,88.55
2017-10-03T09:20:46.514Z,88.13
2017-10-03T09:23:17.441Z,84.98
2017-10-03T09:28:25.600Z,87.55
2017-10-03T09:30:57.273Z,87.57
2017-10-03T09:33:32.876Z,87.40
2017-10-03T09:36:06.649Z,87.49
2017-10-03T09:38:37.620Z,88.11
2017-10-03T09:41:09.053Z,85.76
2017-10-03T09:43:40.801Z,86.32
2017-10-03T09:46:16.604Z,86.47
2017-10-03T09:48:47.471Z,86.63
2017-10-03T09:51:18.655Z,81.55
2017-10-03T09:53:49.827Z,81.42
2017-10-03T09:56:24.700Z,84.29
2017-10-03T09:58:56.274Z,84.34
2017-10-03T10:01:29.749Z,78.21
2017-10-03T10:04:07.580Z,79.65
2017-10-03T10:06:41.229Z,76.30
2017-10-03T10:09:14.889Z,78.35
2017-10-03T10:11:45.866Z,78.72
2017-10-03T10:14:19.610Z,79.16
2017-10-03T10:16:51.175Z,79.82
2017-10-03T10:19:23.373Z,80.36
2017-10-03T10:22:01.079Z,79.42
2017-10-03T10:24:32.093Z,78.60
2017-10-03T10:27:06.529Z,80.61
2017-10-03T10:29:38.551Z,80.43
2017-10-03T10:32:11.092Z,78.06
2017-10-03T10:34:42.488Z,79.97
2017-10-03T10:37:17.170Z,79.38
2017-10-03T10:39:48.513Z,78.87
2017-10-03T10:42:21.593Z,75.30
2017-10-03T10:44:52.759Z,76.66
2017-10-03T10:47:32.497Z,77.75
2017-10-03T10:53:17.888Z,81.78
2017-10-03T10:55:49.031Z,77.34
2017-10-03T10:58:23.248Z,81.52
2017-10-03T11:00:56.116Z,81.18
2017-10-03T11:03:27.188Z,78.71
2017-10-03T11:05:59.092Z,77.59
2017-10-03T11:08:30.393Z,77.41
2017-10-03T11:11:01.158Z,74.98
2017-10-03T11:13:33.813Z,77.10
2017-10-03T11:16:05.142Z,73.90
2017-10-03T11:18:36.626Z,75.35
2017-10-03T11:21:08.066Z,74.85
2017-10-03T11:24:48.125Z,74.11
2017-10-03T11:27:21.436Z,75.56
2017-10-03T11:29:53.360Z,74.75
2017-10-03T11:32:25.069Z,75.29
2017-10-03T11:34:56.498Z,75.63
2017-10-03T11:37:27.650Z,76.21
2017-10-03T11:40:01.249Z,77.29
2017-10-03T11:42:33.291Z,76.99
2017-10-03T11:45:06.241Z,77.28
2017-10-03T11:47:38.859Z,75.10
2017-10-03T11:50:10.061Z,74.32
2017-10-03T11:52:43.137Z,73.46
2017-10-03T11:55:17.144Z,75.92
2017-10-03T11:57:51.678Z,74.95
2017-10-03T12:00:27.203Z,73.87
2017-10-03T12:02:58.320Z,74.14
2017-10-03T12:05:29.158Z,76.08
2017-10-03T12:08:00.637Z,75.19
2017-10-03T12:10:34.375Z,75.05
2017-10-03T12:13:08.157Z,75.56
2017-10-03T12:15:39.585Z,77.53
2017-10-03T12:18:11.407Z,72.97
2017-10-03T12:20:42.950Z,74.32
2017-10-03T12:23:13.744Z,73.95
2017-10-03T12:25:45.043Z,72.79
2017-10-03T12:28:16.517Z,73.67
2017-10-03T12:30:48.929Z,74.08
2017-10-03T12:33:21.979Z,74.17
2017-10-03T12:35:55.166Z,73.63
2017-10-03T12:38:30.680Z,70.49
2017-10-03T12:41:03.261Z,71.50
2017-10-03T12:43:34.813Z,72.36
2017-10-03T12:46:06.174Z,70.46
2017-10-03T12:48:37.917Z,70.48
2017-10-03T12:51:11.487Z,71.34
2017-10-03T12:56:20.489Z,69.04
2017-10-03T12:58:52.686Z,66.70
2017-10-03T13:01:27.344Z,66.86
2017-10-03T13:04:07.836Z,66.15
2017-10-03T13:06:41.986Z,66.29
2017-10-03T13:09:13.826Z,66.64
2017-10-03T13:11:45.824Z,66.55
2017-10-03T13:14:18.032Z,66.79
2017-10-03T13:16:50.102Z,67.16
2017-10-03T13:19:26.078Z,68.97
2017-10-03T13:21:59.015Z,69.43
2017-10-03T13:25:33.273Z,69.34
2017-10-03T13:28:04.011Z,69.42
2017-10-03T13:30:34.869Z,69.13
2017-10-03T13:33:05.984Z,68.97
2017-10-03T13:35:36.988Z,70.07
2017-10-03T13:38:09.540Z,68.88
2017-10-03T13:40:41.235Z,69.12
2017-10-03T13:43:12.983Z,66.48
2017-10-03T13:45:48.655Z,66.42
2017-10-03T13:48:19.553Z,64.90
2017-10-03T13:50:51.678Z,64.91
2017-10-03T13:53:25.576Z,66.11
2017-10-03T13:55:56.632Z,66.00
2017-10-03T13:58:27.353Z,66.15
2017-10-03T14:00:58.973Z,65.96
2017-10-03T14:03:33.989Z,66.46
2017-10-03T14:06:10.836Z,66.55
2017-10-03T14:08:51.829Z,65.59
2017-10-03T14:11:34.713Z,64.61
2017-10-03T14:14:11.280Z,64.71
2017-10-03T14:16:43.859Z,65.60
2017-10-03T14:19:19.798Z,66.94
2017-10-03T14:21:54.347Z,66.59
2017-10-03T14:24:33.754Z,67.95
2017-10-03T14:27:17.202Z,68.23
2017-10-03T14:29:51.811Z,67.04
2017-10-03T14:32:24.290Z,66.29
2017-10-03T14:35:07.422Z,67.15
2017-10-03T14:37:51.688Z,67.56
2017-10-03T14:40:34.546Z,67.09
2017-10-03T14:43:29.141Z,66.76
2017-10-03T14:48:56.755Z,66.42
2017-10-03T14:51:36.380Z,66.33
2017-10-03T14:54:18.789Z,66.42
2017-10-03T14:56:56.008Z,66.63
2017-10-03T14:59:38.130Z,66.37
2017-10-03T15:02:25.086Z,66.73
2017-10-03T15:04:59.237Z,66.79
2017-10-03T15:07:38.275Z,68.28
2017-10-03T15:10:25.225Z,68.58
2017-10-03T15:15:53.523Z,68.71
2017-10-03T15:18:36.900Z,69.48
2017-10-03T15:21:33.234Z,70.14
2017-10-03T15:24:14.711Z,70.33
2017-10-03T15:26:47.961Z,69.90
2017-10-03T15:29:20.718Z,69.66
2017-10-03T15:31:51.866Z,72.73
2017-10-03T15:34:27.186Z,81.27
2017-10-03T15:36:59.239Z,84.71
2017-10-03T15:39:31.265Z,86.72
2017-10-03T15:42:06.498Z,85.10
2017-10-03T15:44:39.051Z,84.59
2017-10-03T15:47:14.543Z,85.39
2017-10-03T15:49:50.702Z,86.03
2017-10-03T15:52:23.367Z,87.30
2017-10-03T15:55:01.604Z,86.12
2017-10-03T15:57:33.346Z,86.47
2017-10-03T16:00:16.182Z,85.86
2017-10-03T16:02:49.285Z,86.93
2017-10-03T16:05:23.145Z,86.56
2017-10-03T16:07:54.862Z,86.85
2017-10-03T16:10:29.010Z,86.36
2017-10-03T16:13:01.052Z,84.50
2017-10-03T16:15:32.333Z,84.76
2017-10-03T16:18:05.941Z,84.45
2017-10-03T16:20:40.852Z,84.80
2017-10-03T16:23:12.166Z,83.44
2017-10-03T16:25:45.691Z,83.97
2017-10-03T16:28:20.419Z,85.26
2017-10-03T16:30:53.671Z,86.16
2017-10-03T16:33:28.940Z,93.38
2017-10-03T16:36:03.245Z,88.43
2017-10-03T16:38:36.838Z,87.68
2017-10-03T16:41:10.439Z,87.85
2017-10-03T16:43:42.577Z,87.20
2017-10-03T16:46:17.732Z,88.21
2017-10-03T16:48:53.082Z,87.23
2017-10-03T16:51:26.557Z,87.03
2017-10-03T16:53:59.573Z,87.01
2017-10-03T16:56:33.024Z,87.19
2017-10-03T16:59:13.878Z,87.02
2017-10-03T17:01:46.984Z,87.10
2017-10-03T17:04:25.824Z,87.66
2017-10-03T17:06:57.818Z,88.35
2017-10-03T17:09:28.986Z,88.31
2017-10-03T17:12:00.499Z,88.67
2017-10-03T17:14:38.038Z,89.12
2017-10-03T17:17:12.907Z,89.35
2017-10-03T17:19:48.828Z,89.30
2017-10-03T17:22:24.802Z,91.37
2017-10-03T17:24:58.697Z,90.61
2017-10-03T17:27:33.939Z,90.78
2017-10-03T17:30:11.144Z,90.58
2017-10-03T17:32:46.819Z,90.73
2017-10-03T17:35:21.885Z,89.90
2017-10-03T17:38:01.821Z,90.15
2017-10-03T17:40:34.056Z,89.55
2017-10-03T17:43:05.698Z,89.81
2017-10-03T17:45:37.739Z,89.78
2017-10-03T17:48:16.272Z,90.20
2017-10-03T17:50:52.476Z,90.01
2017-10-03T17:53:35.528Z,89.60
2017-10-03T17:56:14.762Z,89.93
2017-10-03T17:58:53.345Z,90.46
2017-10-03T18:01:33.729Z,90.07
2017-10-03T18:04:10.041Z,90.80
2017-10-03T18:06:50.843Z,90.75
2017-10-03T18:12:13.568Z,90.44
2017-10-03T18:14:52.929Z,90.08
2017-10-03T18:17:35.374Z,90.07
2017-10-03T18:20:15.997Z,89.95
2017-10-03T18:22:57.036Z,90.79
2017-10-03T18:28:26.209Z,90.88
2017-10-03T18:31:13.167Z,90.19
2017-10-03T18:33:54.304Z,90.16
2017-10-03T18:36:35.243Z,90.00
2017-10-03T18:39:16.014Z,89.98
2017-10-03T18:41:53.723Z,90.12
2017-10-03T18:44:31.694Z,90.00
2017-10-03T18:49:58.584Z,90.00
2017-10-03T18:55:29.199Z,90.01
2017-10-03T18:58:14.335Z,90.38
2017-10-03T19:00:53.458Z,90.40
2017-10-03T19:06:23.027Z,90.97
2017-10-03T19:09:06.119Z,90.81
2017-10-03T19:11:49.154Z,90.90
2017-10-03T19:14:39.307Z,91.20
2017-10-03T19:17:18.264Z,91.28
2017-10-03T19:19:57.040Z,91.23
2017-10-03T19:22:33.899Z,91.94
2017-10-03T19:25:16.605Z,91.93
2017-10-03T19:28:14.878Z,91.56
2017-10-03T19:31:02.185Z,91.27
2017-10-03T19:33:38.104Z,91.28
2017-10-03T19:36:14.877Z,91.49
2017-10-03T19:39:00.701Z,90.10
2017-10-03T19:41:45.098Z,89.69
2017-10-03T19:44:23.672Z,89.66
2017-10-03T19:47:03.148Z,89.76
2017-10-03T19:52:39.400Z,89.57
2017-10-03T19:55:16.578Z,89.33
2017-10-03T19:57:54.404Z,88.76
2017-10-03T20:00:29.568Z,89.56
2017-10-03T20:03:05.005Z,89.41
2017-10-03T20:05:45.787Z,88.80
2017-10-03T20:08:22.301Z,89.51
2017-10-03T20:11:00.301Z,89.84
2017-10-03T20:13:39.540Z,89.80
2017-10-03T20:16:17.454Z,88.73
2017-10-03T20:21:33.234Z,89.69
2017-10-03T20:24:10.782Z,90.19
2017-10-03T20:26:56.092Z,90.12
2017-10-03T20:29:35.581Z,89.09
2017-10-03T20:32:11.670Z,88.83
2017-10-03T20:34:52.757Z,88.75
2017-10-03T20:37:30.914Z,88.74
2017-10-03T20:40:02.724Z,88.57
2017-10-03T20:42:34.963Z,89.22
2017-10-03T20:45:16.401Z,88.84
2017-10-03T20:50:29.033Z,89.05
2017-10-03T20:55:50.310Z,88.23
2017-10-03T20:58:30.751Z,88.82
2017-10-03T21:01:04.960Z,89.40
2017-10-03T21:03:40.747Z,89.22
2017-10-03T21:06:18.375Z,89.39
2017-10-03T21:08:54.708Z,89.51
2017-10-03T21:11:38.650Z,89.53
2017-10-03T21:14:19.150Z,89.73
2017-10-03T21:17:01.916Z,89.60
2017-10-03T21:19:39.288Z,89.48
2017-10-03T21:22:19.690Z,89.78
2017-10-03T21:24:59.078Z,89.09
2017-10-03T21:27:43.142Z,89.43
2017-10-03T21:30:23.589Z,89.63
2017-10-03T21:33:01.737Z,89.25
2017-10-03T21:35:41.121Z,88.92
2017-10-03T21:38:16.113Z,88.93
2017-10-03T21:41:00.275Z,89.12
2017-10-03T21:43:40.219Z,89.14
2017-10-03T21:46:21.025Z,89.24
2017-10-03T21:51:58.819Z,88.62
2017-10-03T21:54:43.507Z,88.86
2017-10-03T22:00:36.814Z,89.02
2017-10-03T22:06:17.172Z,88.94
2017-10-03T22:09:00.619Z,89.09
2017-10-03T22:11:43.306Z,89.21
2017-10-03T22:14:25.642Z,88.90
2017-10-03T22:17:06.225Z,88.81
2017-10-03T22:19:47.800Z,89.01
2017-10-03T22:22:25.207Z,89.15
2017-10-03T22:25:12.061Z,89.42
2017-10-03T22:27:54.869Z,88.92
2017-10-03T22:33:29.120Z,89.05
2017-10-03T22:36:21.929Z,89.11
2017-10-03T22:39:08.759Z,88.85
2017-10-03T22:44:38.061Z,89.90
2017-10-03T22:50:25.826Z,88.86
2017-10-03T22:53:04.172Z,89.19
2017-10-03T22:55:45.376Z,89.13
2017-10-03T22:58:39.758Z,89.14
2017-10-03T23:01:14.216Z,89.56
2017-10-03T23:03:47.134Z,89.64
2017-10-03T23:06:26.183Z,89.75
2017-10-03T23:09:01.165Z,89.80
2017-10-03T23:11:36.478Z,89.61
2017-10-03T23:14:12.181Z,90.16
2017-10-03T23:16:45.090Z,89.99
2017-10-03T23:19:16.847Z,90.07
2017-10-03T23:21:52.276Z,90.09
2017-10-03T23:27:05.737Z,89.92
2017-10-03T23:29:37.596Z,90.10
2017-10-03T23:32:08.224Z,90.26
2017-10-03T23:34:41.346Z,89.42
2017-10-03T23:37:12.081Z,89.43
2017-10-03T23:39:42.958Z,89.46
2017-10-03T23:42:14.806Z,89.55
2017-10-03T23:44:45.558Z,89.22
2017-10-03T23:47:16.329Z,88.79
2017-10-03T23:49:49.207Z,89.00
2017-10-03T23:52:20.873Z,89.02
2017-10-03T23:54:53.830Z,89.08
2017-10-03T23:57:25.056Z,89.52
